Pinch, West Virginia
Current Conditions -  °F | °C
As of 6:54 PM on Saturday 20 Dec 2014 (Local Time) from KCRW Reporting Station
Overcast Overcast  
Wind Chill: 34°   Ceiling: 2600
Heat Index: 34°   Visibility: 10mi
Dew Point: 24°   Wind: 3mph
Humidity: 67%   Direction: 330°NNW
Pressure: 30.26"   Gusts: NA
Location:  38.41°N, 81.48°W
Report Text: KCRW 202354Z 33003KT 10SM BKN026 OVC040 01/M04 A3026 RMK AO2 SLP256 BKN V OVC T00111044 10022 20011 53013
Loading
Personal Weather Stations






























Interactive Weather Map New forecast layout! Learn more

10-Day Weather Forecast

Advertisements
Track Severe Weather on mobile